Grand Rivers, Kentucky
Current Conditions -  °F | °C
As of 8:55 PM on Saturday 25 Oct 2014 (Local Time) from K5M9 Reporting Station
Clear Clear  
Wind Chill: 61°   Ceiling: Unl
Heat Index: 61°   Visibility: 10mi
Dew Point: 59°   Wind: 0mph
Humidity: 92%   Direction: NA
Pressure: 30.02"   Gusts: NA
Location:  37°N, 88.23°W
Report Text: K5M9 260155Z AUTO 00000KT 10SM CLR 16/15 A3002 RMK AO2 T01620149
Loading
Personal Weather Stations






























Interactive Weather Map
Tropical Storm Tracking
New forecast layout! Learn more

10-Day Weather Forecast

Advertisements
Track Severe Weather on mobile